Time,TemperatureF,DewpointF,PressureIn,WindDirection,WindDirectionDegrees,WindSpeedMPH,WindSpeedGustMPH,Humidity,HourlyPrecipIn,Conditions,Clouds,dailyrainin,SoftwareType,DateUTC
2013-06-11 00:03:00,60.0,58.0,30.02,East,86,0.0,2.0,93,0.00,,,0.81,,2013-06-11 04:03:00,
2013-06-11 00:13:00,60.0,58.0,30.02,East,86,0.0,2.0,93,0.00,,,0.81,,2013-06-11 04:13:00,
2013-06-11 00:23:00,60.0,58.0,30.02,East,86,0.0,1.0,94,0.00,,,0.81,,2013-06-11 04:23:00,
2013-06-11 00:33:00,60.0,59.0,30.02,East,86,0.0,0.0,95,0.00,,,0.81,,2013-06-11 04:33:00,
2013-06-11 00:42:00,60.0,59.0,30.02,East,86,0.0,0.0,95,0.00,,,0.81,,2013-06-11 04:42:00,
2013-06-11 00:52:00,60.0,59.0,30.02,East,86,0.0,0.0,95,0.00,,,0.69,,2013-06-11 04:52:00,
2013-06-11 01:02:00,61.0,60.0,30.01,SSE,155,0.0,2.0,96,0.00,,,0.69,,2013-06-11 05:02:00,
2013-06-11 01:12:00,61.0,60.0,30.01,SSE,155,0.0,2.0,96,0.00,,,0.69,,2013-06-11 05:12:00,
2013-06-11 01:22:00,62.0,61.0,30.00,SE,140,0.0,1.0,97,0.00,,,0.69,,2013-06-11 05:22:00,
2013-06-11 01:32:00,62.0,61.0,30.02,SE,140,0.0,1.0,97,0.01,,,0.70,,2013-06-11 05:32:00,
2013-06-11 01:42:00,62.0,61.0,30.02,SE,140,0.0,1.0,97,0.01,,,0.70,,2013-06-11 05:42:00,
2013-06-11 01:52:00,63.0,62.0,30.01,SW,226,2.0,7.0,97,0.03,,,0.66,,2013-06-11 05:52:00,
2013-06-11 02:02:00,62.0,61.0,30.01,SW,221,0.0,3.0,97,0.03,,,0.66,,2013-06-11 06:02:00,
2013-06-11 02:12:00,62.0,61.0,30.01,SW,221,0.0,3.0,97,0.03,,,0.66,,2013-06-11 06:12:00,
2013-06-11 02:22:00,62.0,61.0,30.01,SW,221,0.0,2.0,97,0.04,,,0.67,,2013-06-11 06:22:00,
2013-06-11 02:32:00,62.0,61.0,30.01,SW,216,0.0,2.0,97,0.03,,,0.67,,2013-06-11 06:32:00,
2013-06-11 02:42:00,62.0,61.0,30.01,SSE,155,0.0,5.0,97,0.01,,,0.42,,2013-06-11 06:42:00,
2013-06-11 02:52:00,62.0,61.0,30.01,SSE,155,0.0,5.0,97,0.01,,,0.42,,2013-06-11 06:52:00,
2013-06-11 03:02:00,62.0,61.0,30.01,SW,223,0.0,5.0,97,0.01,,,0.42,,2013-06-11 07:02:00,
2013-06-11 03:13:00,62.0,61.0,30.00,South,180,1.0,4.0,97,0.00,,,0.42,,2013-06-11 07:13:00,
2013-06-11 03:22:00,62.0,61.0,30.00,South,180,1.0,4.0,97,0.00,,,0.42,,2013-06-11 07:22:00,
2013-06-11 03:32:00,62.0,61.0,30.00,South,173,0.0,4.0,97,0.00,,,0.42,,2013-06-11 07:32:00,
2013-06-11 03:42:00,62.0,61.0,30.00,South,173,0.0,4.0,97,0.00,,,0.23,,2013-06-11 07:42:00,
2013-06-11 03:52:00,62.0,61.0,30.00,South,173,0.0,4.0,97,0.00,,,0.23,,2013-06-11 07:52:00,
2013-06-11 04:02:00,62.0,61.0,29.99,South,169,0.0,7.0,98,0.00,,,0.23,,2013-06-11 08:02:00,
2013-06-11 04:12:00,62.0,61.0,29.99,South,169,0.0,7.0,98,0.00,,,0.23,,2013-06-11 08:12:00,
2013-06-11 04:22:00,62.0,61.0,29.99,SW,229,0.0,5.0,97,0.00,,,0.23,,2013-06-11 08:22:00,
2013-06-11 04:32:00,62.0,61.0,29.99,North,356,5.0,8.0,97,0.00,,,0.23,,2013-06-11 08:32:00,
2013-06-11 04:42:00,62.0,61.0,29.98,SW,227,3.0,6.0,98,0.00,,,0.21,,2013-06-11 08:42:00,
2013-06-11 04:52:00,62.0,61.0,29.98,SW,227,3.0,6.0,98,0.00,,,0.21,,2013-06-11 08:52:00,
2013-06-11 05:02:00,62.0,61.0,30.00,South,176,0.0,8.0,97,0.00,,,0.21,,2013-06-11 09:02:00,
2013-06-11 05:12:00,62.0,61.0,30.00,South,176,0.0,8.0,97,0.00,,,0.21,,2013-06-11 09:12:00,
2013-06-11 05:22:00,62.0,61.0,30.00,SW,230,3.0,8.0,97,0.00,,,0.21,,2013-06-11 09:22:00,
2013-06-11 05:33:00,62.0,60.0,29.99,SSE,147,4.0,11.0,93,0.00,,,0.21,,2013-06-11 09:33:00,
2013-06-11 05:43:00,62.0,59.0,29.99,SSE,148,4.0,7.0,91,0.00,,,0.21,,2013-06-11 09:43:00,
2013-06-11 05:53:00,62.0,59.0,29.99,SSE,148,4.0,7.0,91,0.00,,,0.21,,2013-06-11 09:53:00,
2013-06-11 06:03:00,63.0,60.0,30.00,SSW,195,4.0,6.0,89,0.00,,,0.21,,2013-06-11 10:03:00,
2013-06-11 06:12:00,63.0,60.0,30.00,SSW,195,4.0,6.0,89,0.00,,,0.21,,2013-06-11 10:12:00,
2013-06-11 06:23:00,63.0,58.0,30.00,SSE,157,4.0,12.0,85,0.00,,,0.21,,2013-06-11 10:23:00,
2013-06-11 06:33:00,63.0,58.0,30.00,North,11,3.0,12.0,84,0.00,,,0.21,,2013-06-11 10:33:00,
2013-06-11 06:42:00,63.0,58.0,30.00,North,11,3.0,12.0,84,0.00,,,0.21,,2013-06-11 10:42:00,
2013-06-11 06:52:00,63.0,58.0,30.00,SE,138,1.0,3.0,84,0.00,,,0.20,,2013-06-11 10:52:00,
2013-06-11 07:02:00,63.0,58.0,30.01,SSW,209,4.0,6.0,84,0.00,,,0.20,,2013-06-11 11:02:00,
2013-06-11 07:12:00,63.0,58.0,30.01,SSW,209,4.0,6.0,84,0.00,,,0.20,,2013-06-11 11:12:00,
2013-06-11 07:22:00,63.0,58.0,30.01,SSE,162,2.0,17.0,83,0.00,,,0.20,,2013-06-11 11:22:00,
2013-06-11 07:32:00,63.0,58.0,30.02,SSE,159,6.0,10.0,84,0.00,,,0.20,,2013-06-11 11:32:00,
2013-06-11 07:42:00,63.0,58.0,30.02,SSE,159,6.0,10.0,84,0.00,,,0.20,,2013-06-11 11:42:00,
2013-06-11 07:52:00,64.0,58.0,30.03,East,86,3.0,12.0,81,0.00,,,0.20,,2013-06-11 11:52:00,
2013-06-11 08:02:00,64.0,58.0,30.03,East,94,1.0,9.0,80,0.00,,,0.20,,2013-06-11 12:02:00,
2013-06-11 08:12:00,64.0,58.0,30.03,SW,214,2.0,12.0,82,0.00,,,0.20,,2013-06-11 12:12:00,
2013-06-11 08:22:00,64.0,58.0,30.03,SW,214,2.0,12.0,82,0.00,,,0.20,,2013-06-11 12:22:00,
2013-06-11 08:32:00,65.0,58.0,30.04,East,93,5.0,15.0,78,0.00,,,0.20,,2013-06-11 12:32:00,
2013-06-11 08:42:00,65.0,59.0,30.04,South,172,4.0,9.0,80,0.00,,,0.20,,2013-06-11 12:42:00,
2013-06-11 08:52:00,65.0,59.0,30.04,South,172,4.0,9.0,80,0.00,,,0.20,,2013-06-11 12:52:00,
2013-06-11 09:02:00,66.0,59.0,30.05,NE,51,0.0,5.0,78,0.00,,,0.20,,2013-06-11 13:02:00,
2013-06-11 09:12:00,66.0,59.0,30.05,NE,51,0.0,5.0,78,0.00,,,0.20,,2013-06-11 13:12:00,
2013-06-11 09:22:00,66.0,59.0,30.05,SSW,201,2.0,6.0,78,0.00,,,0.20,,2013-06-11 13:22:00,
2013-06-11 09:32:00,66.0,58.0,30.06,ENE,67,0.0,6.0,76,0.00,,,0.20,,2013-06-11 13:32:00,
2013-06-11 09:42:00,66.0,58.0,30.06,ENE,67,0.0,6.0,76,0.00,,,0.20,,2013-06-11 13:42:00,
2013-06-11 09:52:00,66.0,58.0,30.06,ENE,67,0.0,6.0,76,0.00,,,0.20,,2013-06-11 13:52:00,
2013-06-11 10:02:00,66.0,58.0,30.06,ENE,67,0.0,6.0,76,0.00,,,0.20,,2013-06-11 14:02:00,
2013-06-11 11:33:00,70.0,58.0,30.06,East,83,2.0,8.0,66,-99.99,,,-99.99,,2013-06-11 15:33:00,
2013-06-11 11:43:00,70.0,58.0,30.06,East,83,2.0,8.0,66,-99.99,,,-99.99,,2013-06-11 15:43:00,
2013-06-11 11:53:00,70.0,59.0,30.06,SE,137,1.0,3.0,68,-99.99,,,-99.99,,2013-06-11 15:53:00,
2013-06-11 12:03:00,71.0,59.0,30.06,SW,232,3.0,7.0,65,-99.99,,,-99.99,,2013-06-11 16:03:00,
2013-06-11 12:12:00,71.0,59.0,30.06,SW,232,3.0,7.0,65,-99.99,,,-99.99,,2013-06-11 16:12:00,
2013-06-11 12:22:00,71.0,59.0,30.06,SSE,167,4.0,12.0,66,-99.99,,,-99.99,,2013-06-11 16:22:00,
2013-06-11 12:33:00,72.0,60.0,30.06,South,189,2.0,5.0,66,0.00,,,-99.99,,2013-06-11 16:33:00,
2013-06-11 12:42:00,72.0,61.0,30.06,ENE,57,0.0,8.0,68,0.00,,,-99.99,,2013-06-11 16:42:00,
2013-06-11 12:52:00,72.0,61.0,30.06,ENE,57,0.0,8.0,68,0.00,,,-99.99,,2013-06-11 16:52:00,
2013-06-11 13:02:00,73.0,60.0,30.05,West,261,0.0,5.0,64,0.00,,,-99.99,,2013-06-11 17:02:00,
2013-06-11 13:12:00,73.0,60.0,30.05,West,261,0.0,5.0,64,0.00,,,-99.99,,2013-06-11 17:12:00,
2013-06-11 13:22:00,73.0,59.0,30.05,SSW,204,3.0,8.0,61,0.00,,,-99.99,,2013-06-11 17:22:00,
2013-06-11 13:32:00,74.0,59.0,30.05,SSW,198,1.0,7.0,59,0.00,,,-99.99,,2013-06-11 17:32:00,
2013-06-11 13:43:00,75.0,58.0,30.06,East,87,3.0,15.0,55,0.00,,,-99.99,,2013-06-11 17:43:00,
2013-06-11 13:52:00,75.0,58.0,30.06,East,87,3.0,15.0,55,0.00,,,-99.99,,2013-06-11 17:52:00,
2013-06-11 14:02:00,76.0,59.0,30.05,NNE,14,1.0,10.0,56,0.00,,,-99.99,,2013-06-11 18:02:00,
2013-06-11 14:12:00,76.0,59.0,30.05,NNE,14,1.0,10.0,56,0.00,,,-99.99,,2013-06-11 18:12:00,
2013-06-11 14:22:00,76.0,59.0,30.06,WNW,301,3.0,9.0,55,0.00,,,-99.99,,2013-06-11 18:22:00,
2013-06-11 14:33:00,76.0,60.0,30.05,NE,48,3.0,9.0,58,0.00,,,-99.99,,2013-06-11 18:33:00,
2013-06-11 14:43:00,76.0,60.0,30.05,NE,48,3.0,9.0,58,0.00,,,-99.99,,2013-06-11 18:43:00,
2013-06-11 14:52:00,76.0,60.0,30.06,SW,227,2.0,4.0,57,0.00,,,-99.99,,2013-06-11 18:52:00,
2013-06-11 15:03:00,77.0,59.0,30.06,NNW,345,2.0,6.0,54,0.00,,,-99.99,,2013-06-11 19:03:00,
2013-06-11 15:12:00,77.0,59.0,30.06,NNW,345,2.0,6.0,54,0.00,,,-99.99,,2013-06-11 19:12:00,
2013-06-11 15:22:00,77.0,57.0,30.06,East,83,1.0,11.0,50,0.00,,,-99.99,,2013-06-11 19:22:00,
2013-06-11 15:33:00,77.0,57.0,30.06,NE,53,5.0,8.0,51,0.00,,,-99.99,,2013-06-11 19:33:00,
2013-06-11 15:42:00,77.0,57.0,30.06,NE,53,5.0,8.0,51,0.00,,,-99.99,,2013-06-11 19:42:00,
2013-06-11 15:52:00,77.0,59.0,30.06,East,94,1.0,4.0,54,0.00,,,-99.99,,2013-06-11 19:52:00,
2013-06-11 16:03:00,77.0,58.0,30.06,ENE,58,1.0,9.0,52,0.00,,,-99.99,,2013-06-11 20:03:00,
2013-06-11 16:12:00,77.0,58.0,30.06,ENE,58,1.0,9.0,52,0.00,,,-99.99,,2013-06-11 20:12:00,
2013-06-11 16:22:00,77.0,59.0,30.06,North,8,2.0,6.0,53,0.00,,,-99.99,,2013-06-11 20:22:00,
2013-06-11 16:32:00,77.0,59.0,30.06,WSW,247,1.0,9.0,54,0.00,,,-99.99,,2013-06-11 20:32:00,
2013-06-11 16:42:00,77.0,59.0,30.06,WSW,247,1.0,9.0,54,0.00,,,-99.99,,2013-06-11 20:42:00,
2013-06-11 16:52:00,77.0,57.0,30.06,NW,305,1.0,4.0,51,0.00,,,-99.99,,2013-06-11 20:52:00,
2013-06-11 17:02:00,77.0,59.0,30.06,NE,34,0.0,4.0,54,0.00,,,-99.99,,2013-06-11 21:02:00,
2013-06-11 17:12:00,77.0,59.0,30.06,NE,34,0.0,4.0,54,0.00,,,-99.99,,2013-06-11 21:12:00,
2013-06-11 17:22:00,77.0,60.0,30.05,SW,224,1.0,4.0,55,0.00,,,-99.99,,2013-06-11 21:22:00,
2013-06-11 17:33:00,77.0,60.0,30.05,NE,56,0.0,5.0,55,0.00,,,-99.99,,2013-06-11 21:33:00,
2013-06-11 17:42:00,77.0,60.0,30.05,NE,56,0.0,5.0,55,0.00,,,-99.99,,2013-06-11 21:42:00,
2013-06-11 17:53:00,77.0,59.0,30.05,SSW,213,1.0,4.0,54,0.00,,,-99.99,,2013-06-11 21:53:00,
2013-06-11 18:03:00,77.0,61.0,30.05,SSW,203,1.0,7.0,58,0.00,,,-99.99,,2013-06-11 22:03:00,
2013-06-11 18:12:00,77.0,61.0,30.05,SSW,203,1.0,7.0,58,0.00,,,-99.99,,2013-06-11 22:12:00,
2013-06-11 18:22:00,77.0,58.0,30.04,WSW,254,4.0,8.0,52,0.00,,,-99.99,,2013-06-11 22:22:00,
2013-06-11 18:33:00,76.0,59.0,30.04,ENE,75,0.0,7.0,55,0.00,,,-99.99,,2013-06-11 22:33:00,
2013-06-11 18:42:00,76.0,59.0,30.04,ENE,75,0.0,7.0,55,0.00,,,-99.99,,2013-06-11 22:42:00,
2013-06-11 18:52:00,76.0,59.0,30.05,SSW,210,1.0,11.0,56,0.00,,,-99.99,,2013-06-11 22:52:00,
2013-06-11 19:02:00,75.0,58.0,30.06,NW,317,2.0,5.0,56,0.00,,,-99.99,,2013-06-11 23:02:00,
2013-06-11 19:12:00,75.0,58.0,30.06,NW,317,2.0,5.0,56,0.00,,,-99.99,,2013-06-11 23:12:00,
2013-06-11 19:22:00,75.0,57.0,30.06,NNE,19,1.0,4.0,54,0.00,,,-99.99,,2013-06-11 23:22:00,
2013-06-11 19:32:00,75.0,59.0,30.06,SSW,196,1.0,7.0,58,0.00,,,-99.99,,2013-06-11 23:32:00,
2013-06-11 19:42:00,74.0,59.0,30.06,SW,229,0.0,5.0,60,0.00,,,-99.99,,2013-06-11 23:42:00,
2013-06-11 19:52:00,74.0,59.0,30.06,SW,229,0.0,5.0,60,0.00,,,-99.99,,2013-06-11 23:52:00,
2013-06-11 20:02:00,74.0,61.0,30.06,SW,234,0.0,1.0,63,0.00,,,-99.99,,2013-06-12 00:02:00,
2013-06-11 20:12:00,73.0,61.0,30.05,South,191,0.0,4.0,65,0.00,,,-99.99,,2013-06-12 00:12:00,
2013-06-11 20:22:00,73.0,61.0,30.05,South,191,0.0,4.0,65,0.00,,,-99.99,,2013-06-12 00:22:00,
2013-06-11 20:32:00,70.0,59.0,30.05,South,191,0.0,2.0,69,0.00,,,-99.99,,2013-06-12 00:32:00,
2013-06-11 20:42:00,70.0,59.0,30.05,South,191,0.0,2.0,69,0.00,,,-99.99,,2013-06-12 00:42:00,
2013-06-11 20:52:00,69.0,60.0,30.06,South,191,0.0,1.0,72,0.00,,,-99.99,,2013-06-12 00:52:00,
2013-06-11 21:02:00,68.0,59.0,30.06,East,86,0.0,4.0,74,0.00,,,-99.99,,2013-06-12 01:02:00,
2013-06-11 21:12:00,68.0,59.0,30.06,East,86,0.0,4.0,74,0.00,,,-99.99,,2013-06-12 01:12:00,
2013-06-11 21:22:00,67.0,59.0,30.06,East,86,2.0,3.0,75,0.00,,,-99.99,,2013-06-12 01:22:00,
2013-06-11 21:32:00,66.0,59.0,30.07,East,86,0.0,2.0,79,0.00,,,-99.99,,2013-06-12 01:32:00,
2013-06-11 21:42:00,66.0,59.0,30.07,East,86,0.0,2.0,79,0.00,,,-99.99,,2013-06-12 01:42:00,
2013-06-11 21:52:00,65.0,58.0,30.06,ESE,115,1.0,6.0,79,0.00,,,-99.99,,2013-06-12 01:52:00,
2013-06-11 22:02:00,65.0,59.0,30.07,East,89,0.0,4.0,81,0.00,,,-99.99,,2013-06-12 02:02:00,
2013-06-11 22:12:00,65.0,59.0,30.07,East,89,0.0,4.0,81,0.00,,,-99.99,,2013-06-12 02:12:00,
2013-06-11 22:22:00,64.0,58.0,30.08,ENE,63,0.0,4.0,81,0.00,,,-99.99,,2013-06-12 02:22:00,
2013-06-11 22:32:00,64.0,59.0,30.08,ENE,63,0.0,1.0,84,0.00,,,-99.99,,2013-06-12 02:32:00,
2013-06-11 22:42:00,64.0,58.0,30.09,SSW,209,1.0,3.0,82,0.00,,,-99.99,,2013-06-12 02:42:00,
2013-06-11 22:52:00,64.0,58.0,30.09,SSW,209,1.0,3.0,82,0.00,,,-99.99,,2013-06-12 02:52:00,
2013-06-11 23:02:00,65.0,60.0,30.09,SSW,209,0.0,0.0,83,0.00,,,-99.99,,2013-06-12 03:02:00,
2013-06-11 23:12:00,65.0,60.0,30.09,SSW,209,0.0,1.0,83,0.00,,,-99.99,,2013-06-12 03:12:00,
2013-06-11 23:22:00,65.0,60.0,30.09,SSW,209,0.0,1.0,83,0.00,,,-99.99,,2013-06-12 03:22:00,
2013-06-11 23:33:00,65.0,59.0,30.09,WSW,244,0.0,0.0,81,0.00,,,-99.99,,2013-06-12 03:33:00,
2013-06-11 23:43:00,65.0,59.0,30.09,WSW,244,0.0,0.0,81,0.00,,,-99.99,,2013-06-12 03:43:00,
2013-06-11 23:53:00,65.0,58.0,30.09,WSW,244,0.0,1.0,79,0.00,,,-99.99,,2013-06-12 03:53:00,